Time,TemperatureF,DewpointF,PressureIn,WindDirection,WindDirectionDegrees,WindSpeedMPH,WindSpeedGustMPH,Humidity,HourlyPrecipIn,Conditions,Clouds,dailyrainin,SoftwareType,DateUTC
2013-02-13 00:01:00,49.5,41.9,29.68,South,177,0.0,0.0,75,0.00,,---,0.00,VWS V14.00,2013-02-13 08:01:00,
2013-02-13 00:06:00,49.6,42.0,29.71,SSE,153,0.0,3.6,75,0.00,,---,0.00,VWS V14.00,2013-02-13 08:06:00,
2013-02-13 00:11:00,49.8,42.2,29.71,South,183,0.0,3.6,75,0.00,,---,0.00,VWS V14.00,2013-02-13 08:11:00,
2013-02-13 00:16:00,49.8,42.2,29.71,South,169,0.0,4.0,75,0.00,,---,0.00,VWS V14.00,2013-02-13 08:16:00,
2013-02-13 00:21:00,49.8,42.2,29.71,SSE,156,2.2,2.7,75,0.00,,---,0.00,VWS V14.00,2013-02-13 08:21:00,
2013-02-13 00:26:00,49.6,41.7,29.71,SSE,158,0.0,3.6,74,0.00,,---,0.00,VWS V14.00,2013-02-13 08:26:00,
2013-02-13 00:31:00,49.8,42.2,29.71,West,268,2.7,3.6,75,0.00,,---,0.00,VWS V14.00,2013-02-13 08:31:00,
2013-02-13 00:36:00,49.8,42.2,29.71,SW,234,0.0,3.6,75,0.00,,---,0.00,VWS V14.00,2013-02-13 08:36:00,
2013-02-13 00:41:00,49.6,41.7,29.71,SE,133,0.0,0.0,74,0.00,,---,0.00,VWS V14.00,2013-02-13 08:41:00,
2013-02-13 00:46:00,49.6,42.0,29.71,SSW,203,0.0,3.1,75,0.00,,---,0.00,VWS V14.00,2013-02-13 08:46:00,
2013-02-13 00:51:00,49.6,42.0,29.71,SE,138,0.0,3.1,75,0.00,,---,0.00,VWS V14.00,2013-02-13 08:51:00,
2013-02-13 00:56:00,49.6,42.0,29.71,SSW,212,2.2,4.9,75,0.00,,---,0.00,VWS V14.00,2013-02-13 08:56:00,
2013-02-13 01:01:00,49.5,41.9,29.71,SE,137,2.7,2.7,75,0.00,,---,0.00,VWS V14.00,2013-02-13 09:01:00,
2013-02-13 01:06:00,49.3,42.0,29.71,SSE,153,2.7,7.6,76,0.00,,---,0.00,VWS V14.00,2013-02-13 09:06:00,
2013-02-13 01:11:00,48.7,41.5,29.71,NW,305,4.9,7.6,76,0.00,,---,0.00,VWS V14.00,2013-02-13 09:11:00,
2013-02-13 01:16:00,48.6,41.7,29.71,SW,217,0.0,7.6,77,0.00,,---,0.00,VWS V14.00,2013-02-13 09:16:00,
2013-02-13 01:21:00,48.4,41.8,29.71,SSE,168,0.0,6.3,78,0.00,,---,0.00,VWS V14.00,2013-02-13 09:21:00,
2013-02-13 01:26:00,48.6,42.3,29.71,South,181,0.0,6.3,79,0.00,,---,0.00,VWS V14.00,2013-02-13 09:26:00,
2013-02-13 01:31:00,48.7,42.5,29.71,SW,218,0.0,6.3,79,0.00,,---,0.00,VWS V14.00,2013-02-13 09:31:00,
2013-02-13 01:36:00,48.7,42.9,29.71,SSW,211,0.0,6.3,80,0.00,,---,0.00,VWS V14.00,2013-02-13 09:36:00,
2013-02-13 01:41:00,48.7,42.9,29.71,SSE,154,0.0,2.2,80,0.00,,---,0.00,VWS V14.00,2013-02-13 09:41:00,
2013-02-13 01:46:00,48.9,43.0,29.71,WSW,246,0.0,2.7,80,0.00,,---,0.00,VWS V14.00,2013-02-13 09:46:00,
2013-02-13 01:51:00,48.9,43.0,29.71,West,279,0.0,5.8,80,0.00,,---,0.04,VWS V14.00,2013-02-13 09:51:00,
2013-02-13 01:56:00,48.9,43.0,29.71,SE,143,0.0,5.8,80,0.00,,---,0.04,VWS V14.00,2013-02-13 09:56:00,
2013-02-13 02:01:00,48.7,42.5,29.71,WNW,298,0.0,0.0,79,0.00,,---,0.04,VWS V14.00,2013-02-13 10:01:00,
2013-02-13 02:06:00,48.7,42.9,29.74,WNW,298,0.0,0.0,80,0.00,,---,0.04,VWS V14.00,2013-02-13 10:06:00,
2013-02-13 02:11:00,48.7,42.9,29.74,WNW,298,0.0,0.0,80,0.00,,---,0.04,VWS V14.00,2013-02-13 10:11:00,
2013-02-13 02:16:00,48.7,42.9,29.74,WNW,296,0.0,0.0,80,0.00,,---,0.04,VWS V14.00,2013-02-13 10:16:00,
2013-02-13 02:21:00,48.7,42.5,29.74,WNW,296,0.0,0.0,79,0.08,,---,0.08,VWS V14.00,2013-02-13 10:21:00,
2013-02-13 02:27:00,48.6,42.3,29.74,WNW,296,0.0,0.0,79,0.08,,---,0.08,VWS V14.00,2013-02-13 10:27:00,
2013-02-13 02:32:00,48.6,42.7,29.74,WNW,298,0.0,0.0,80,0.08,,---,0.08,VWS V14.00,2013-02-13 10:32:00,
2013-02-13 02:37:00,48.6,42.7,29.74,West,271,0.0,3.6,80,0.08,,---,0.08,VWS V14.00,2013-02-13 10:37:00,
2013-02-13 02:42:00,48.6,42.7,29.74,WSW,237,0.0,0.0,80,0.08,,---,0.08,VWS V14.00,2013-02-13 10:42:00,
2013-02-13 02:47:00,48.6,42.3,29.74,WSW,237,0.0,0.0,79,0.08,,---,0.08,VWS V14.00,2013-02-13 10:47:00,
2013-02-13 02:52:00,48.6,42.3,29.74,WSW,237,0.0,0.0,79,0.08,,---,0.12,VWS V14.00,2013-02-13 10:52:00,
2013-02-13 02:57:00,48.4,42.2,29.74,SW,236,0.0,0.0,79,0.08,,---,0.12,VWS V14.00,2013-02-13 10:57:00,
2013-02-13 03:02:00,48.4,42.2,29.74,WSW,237,0.0,0.0,79,0.08,,---,0.12,VWS V14.00,2013-02-13 11:02:00,
2013-02-13 03:07:00,48.4,42.5,29.74,WSW,237,0.0,0.0,80,0.08,,---,0.12,VWS V14.00,2013-02-13 11:07:00,
2013-02-13 03:12:00,48.2,42.0,29.74,WSW,237,0.0,0.0,79,0.08,,---,0.12,VWS V14.00,2013-02-13 11:12:00,
2013-02-13 03:17:00,48.2,42.0,29.74,WSW,237,0.0,0.0,79,0.08,,---,0.12,VWS V14.00,2013-02-13 11:17:00,
2013-02-13 03:22:00,48.2,42.3,29.74,WSW,237,0.0,0.0,80,0.08,,---,0.12,VWS V14.00,2013-02-13 11:22:00,
2013-02-13 03:27:00,48.4,42.5,29.74,WSW,237,0.0,0.0,80,0.08,,---,0.12,VWS V14.00,2013-02-13 11:27:00,
2013-02-13 03:32:00,48.4,42.5,29.74,WSW,237,0.0,0.0,80,0.08,,---,0.16,VWS V14.00,2013-02-13 11:32:00,
2013-02-13 03:37:00,48.2,42.0,29.74,WSW,237,0.0,0.0,79,0.08,,---,0.16,VWS V14.00,2013-02-13 11:37:00,
2013-02-13 03:42:00,48.0,42.2,29.74,WSW,237,0.0,0.0,80,0.08,,---,0.16,VWS V14.00,2013-02-13 11:42:00,
2013-02-13 03:47:00,47.8,42.0,29.74,SE,133,0.0,0.0,80,0.08,,---,0.16,VWS V14.00,2013-02-13 11:47:00,
2013-02-13 03:52:00,47.8,42.0,29.74,SE,133,0.0,0.0,80,0.08,,---,0.16,VWS V14.00,2013-02-13 11:52:00,
2013-02-13 03:57:00,47.8,42.0,29.74,SE,133,0.0,0.0,80,0.08,,---,0.16,VWS V14.00,2013-02-13 11:57:00,
2013-02-13 04:02:00,47.8,42.3,29.74,SE,133,0.0,0.0,81,0.08,,---,0.16,VWS V14.00,2013-02-13 12:02:00,
2013-02-13 04:07:00,47.8,42.0,29.74,SE,133,0.0,0.0,80,0.08,,---,0.16,VWS V14.00,2013-02-13 12:07:00,
2013-02-13 04:12:00,47.7,41.8,29.74,SE,133,0.0,0.0,80,0.08,,---,0.16,VWS V14.00,2013-02-13 12:12:00,
2013-02-13 04:17:00,47.7,41.8,29.74,SE,133,0.0,0.0,80,0.08,,---,0.16,VWS V14.00,2013-02-13 12:17:00,
2013-02-13 04:22:00,47.7,41.8,29.74,SE,133,0.0,0.0,80,0.08,,---,0.16,VWS V14.00,2013-02-13 12:22:00,
2013-02-13 04:27:00,47.5,41.6,29.74,ESE,106,2.7,2.7,80,0.08,,---,0.16,VWS V14.00,2013-02-13 12:27:00,
2013-02-13 04:32:00,47.3,41.5,29.74,ESE,104,0.0,2.7,80,0.08,,---,0.16,VWS V14.00,2013-02-13 12:32:00,
2013-02-13 04:37:00,47.1,41.3,29.74,East,91,0.0,2.7,80,0.08,,---,0.16,VWS V14.00,2013-02-13 12:37:00,
2013-02-13 04:42:00,47.3,41.8,29.74,East,91,0.0,0.0,81,0.08,,---,0.16,VWS V14.00,2013-02-13 12:42:00,
2013-02-13 04:47:00,47.3,41.8,29.74,East,91,0.0,0.0,81,0.08,,---,0.16,VWS V14.00,2013-02-13 12:47:00,
2013-02-13 04:52:00,47.3,41.8,29.74,East,91,0.0,0.0,81,0.08,,---,0.16,VWS V14.00,2013-02-13 12:52:00,
2013-02-13 04:58:00,47.3,41.8,29.74,East,91,0.0,0.0,81,0.08,,---,0.16,VWS V14.00,2013-02-13 12:58:00,
2013-02-13 05:03:00,47.3,41.5,29.74,East,91,0.0,0.0,80,0.08,,---,0.16,VWS V14.00,2013-02-13 13:03:00,
2013-02-13 05:08:00,47.3,41.5,29.77,East,91,0.0,0.0,80,0.08,,---,0.16,VWS V14.00,2013-02-13 13:08:00,
2013-02-13 05:13:00,47.1,41.3,29.77,ESE,106,0.0,0.0,80,0.08,,---,0.16,VWS V14.00,2013-02-13 13:13:00,
2013-02-13 05:18:00,46.9,41.1,29.77,East,99,0.0,0.0,80,0.08,,---,0.16,VWS V14.00,2013-02-13 13:18:00,
2013-02-13 05:23:00,46.9,41.1,29.77,East,99,0.0,0.0,80,0.08,,---,0.16,VWS V14.00,2013-02-13 13:23:00,
2013-02-13 05:28:00,46.8,40.9,29.77,East,95,0.0,0.0,80,0.08,,---,0.16,VWS V14.00,2013-02-13 13:28:00,
2013-02-13 05:33:00,46.6,40.8,29.77,East,101,0.0,0.0,80,0.08,,---,0.16,VWS V14.00,2013-02-13 13:33:00,
2013-02-13 05:38:00,46.8,40.9,29.77,East,101,0.0,0.0,80,0.00,,---,0.16,VWS V14.00,2013-02-13 13:38:00,
2013-02-13 05:43:00,46.8,41.2,29.77,East,101,0.0,0.0,81,0.00,,---,0.16,VWS V14.00,2013-02-13 13:43:00,
2013-02-13 05:48:00,46.9,41.4,29.77,East,101,0.0,0.0,81,0.00,,---,0.16,VWS V14.00,2013-02-13 13:48:00,
2013-02-13 05:53:00,46.9,41.4,29.77,East,101,0.0,0.0,81,0.00,,---,0.16,VWS V14.00,2013-02-13 13:53:00,
2013-02-13 05:58:00,46.9,41.4,29.77,East,101,0.0,0.0,81,0.00,,---,0.16,VWS V14.00,2013-02-13 13:58:00,
2013-02-13 06:03:00,46.8,41.2,29.77,ESE,105,0.0,0.0,81,0.00,,---,0.16,VWS V14.00,2013-02-13 14:03:00,
2013-02-13 06:08:00,46.8,41.2,29.77,ESE,106,0.0,0.0,81,0.00,,---,0.16,VWS V14.00,2013-02-13 14:08:00,
2013-02-13 06:13:00,46.9,41.4,29.77,ESE,105,0.0,0.0,81,0.00,,---,0.16,VWS V14.00,2013-02-13 14:13:00,
2013-02-13 06:18:00,47.1,41.6,29.77,ESE,105,0.0,0.0,81,0.00,,---,0.16,VWS V14.00,2013-02-13 14:18:00,
2013-02-13 06:23:00,47.3,41.8,29.77,ESE,106,0.0,0.0,81,0.00,,---,0.16,VWS V14.00,2013-02-13 14:23:00,
2013-02-13 06:28:00,47.3,41.8,29.77,ESE,105,0.0,0.0,81,0.00,,---,0.16,VWS V14.00,2013-02-13 14:28:00,
2013-02-13 06:33:00,47.3,41.8,29.77,ESE,105,0.0,0.0,81,0.00,,---,0.16,VWS V14.00,2013-02-13 14:33:00,
2013-02-13 06:38:00,47.5,42.0,29.77,ESE,106,0.0,0.0,81,0.00,,---,0.16,VWS V14.00,2013-02-13 14:38:00,
2013-02-13 06:43:00,47.5,42.0,29.77,ESE,105,0.0,0.0,81,0.00,,---,0.20,VWS V14.00,2013-02-13 14:43:00,
2013-02-13 06:48:00,47.7,42.1,29.77,ESE,105,0.0,0.0,81,0.00,,---,0.20,VWS V14.00,2013-02-13 14:48:00,
2013-02-13 06:54:00,47.8,42.3,29.77,ESE,106,0.0,0.0,81,0.00,,---,0.20,VWS V14.00,2013-02-13 14:54:00,
2013-02-13 06:59:00,47.8,42.3,29.77,East,100,0.0,0.0,81,0.00,,---,0.20,VWS V14.00,2013-02-13 14:59:00,
2013-02-13 07:04:00,48.0,42.5,29.77,East,100,0.0,0.0,81,0.00,,---,0.20,VWS V14.00,2013-02-13 15:04:00,
2013-02-13 07:09:00,48.0,42.2,29.77,East,100,0.0,0.0,80,0.00,,---,0.20,VWS V14.00,2013-02-13 15:09:00,
2013-02-13 07:14:00,48.0,42.2,29.77,East,100,0.0,0.0,80,0.00,,---,0.20,VWS V14.00,2013-02-13 15:14:00,
2013-02-13 07:19:00,48.0,42.2,29.77,East,99,0.0,0.0,80,0.00,,---,0.20,VWS V14.00,2013-02-13 15:19:00,
2013-02-13 07:24:00,48.0,42.2,29.77,East,100,0.0,0.0,80,0.00,,---,0.20,VWS V14.00,2013-02-13 15:24:00,
2013-02-13 07:29:00,48.2,42.0,29.77,East,100,0.0,0.0,79,0.00,,---,0.20,VWS V14.00,2013-02-13 15:29:00,
2013-02-13 07:34:00,48.2,42.0,29.77,East,100,0.0,0.0,79,0.00,,---,0.20,VWS V14.00,2013-02-13 15:34:00,
2013-02-13 07:39:00,48.2,42.0,29.77,East,100,0.0,0.0,79,0.00,,---,0.20,VWS V14.00,2013-02-13 15:39:00,
2013-02-13 07:44:00,48.2,42.0,29.77,East,100,0.0,0.0,79,0.00,,---,0.20,VWS V14.00,2013-02-13 15:44:00,
2013-02-13 07:49:00,48.2,42.0,29.77,East,100,0.0,0.0,79,0.00,,---,0.20,VWS V14.00,2013-02-13 15:49:00,
2013-02-13 07:54:00,48.4,42.2,29.80,East,100,0.0,0.0,79,0.00,,---,0.20,VWS V14.00,2013-02-13 15:54:00,
2013-02-13 07:59:00,48.4,42.2,29.80,East,100,0.0,0.0,79,0.00,,---,0.20,VWS V14.00,2013-02-13 15:59:00,
2013-02-13 08:04:00,48.4,42.2,29.80,East,100,0.0,0.0,79,0.00,,---,0.20,VWS V14.00,2013-02-13 16:04:00,
2013-02-13 08:09:00,48.4,41.8,29.80,East,100,0.0,0.0,78,0.00,,---,0.20,VWS V14.00,2013-02-13 16:09:00,
2013-02-13 08:14:00,48.6,42.0,29.80,East,100,0.0,0.0,78,0.00,,---,0.20,VWS V14.00,2013-02-13 16:14:00,
2013-02-13 08:19:00,48.6,42.0,29.80,East,100,0.0,0.0,78,0.00,,---,0.20,VWS V14.00,2013-02-13 16:19:00,
2013-02-13 08:24:00,48.6,42.0,29.80,East,100,0.0,0.0,78,0.00,,---,0.20,VWS V14.00,2013-02-13 16:24:00,
2013-02-13 08:29:00,48.6,42.0,29.80,East,100,0.0,0.0,78,0.00,,---,0.20,VWS V14.00,2013-02-13 16:29:00,
2013-02-13 08:34:00,48.6,42.0,29.80,East,99,0.0,0.0,78,0.00,,---,0.20,VWS V14.00,2013-02-13 16:34:00,
2013-02-13 08:39:00,48.6,42.0,29.80,East,100,0.0,0.0,78,0.00,,---,0.20,VWS V14.00,2013-02-13 16:39:00,
2013-02-13 08:44:00,48.7,42.2,29.80,East,100,0.0,0.0,78,0.00,,---,0.20,VWS V14.00,2013-02-13 16:44:00,
2013-02-13 08:49:00,48.7,41.9,29.80,East,100,0.0,0.0,77,0.00,,---,0.20,VWS V14.00,2013-02-13 16:49:00,
2013-02-13 08:54:00,48.6,41.7,29.80,East,100,0.0,0.0,77,0.00,,---,0.20,VWS V14.00,2013-02-13 16:54:00,
2013-02-13 08:59:00,48.6,41.7,29.80,East,100,0.0,0.0,77,0.00,,---,0.20,VWS V14.00,2013-02-13 16:59:00,
2013-02-13 09:04:00,48.6,41.7,29.80,East,100,0.0,0.0,77,0.00,,---,0.20,VWS V14.00,2013-02-13 17:04:00,
2013-02-13 09:09:00,48.7,41.9,29.80,East,100,0.0,0.0,77,0.00,,---,0.20,VWS V14.00,2013-02-13 17:09:00,
2013-02-13 09:14:00,48.7,41.9,29.80,East,99,0.0,0.0,77,0.00,,---,0.20,VWS V14.00,2013-02-13 17:14:00,
2013-02-13 09:19:00,48.7,41.9,29.80,East,100,0.0,0.0,77,0.00,,---,0.20,VWS V14.00,2013-02-13 17:19:00,
2013-02-13 09:24:00,48.7,41.9,29.83,East,100,0.0,0.0,77,0.00,,---,0.20,VWS V14.00,2013-02-13 17:24:00,
2013-02-13 09:29:00,48.7,41.9,29.83,East,100,0.0,0.0,77,0.00,,---,0.20,VWS V14.00,2013-02-13 17:29:00,
2013-02-13 09:34:00,48.7,41.5,29.83,East,99,0.0,0.0,76,0.00,,---,0.20,VWS V14.00,2013-02-13 17:34:00,
2013-02-13 09:39:00,48.6,41.3,29.83,East,100,0.0,0.0,76,0.00,,---,0.20,VWS V14.00,2013-02-13 17:39:00,
2013-02-13 09:44:00,48.4,41.2,29.83,East,100,0.0,0.0,76,0.00,,---,0.20,VWS V14.00,2013-02-13 17:44:00,
2013-02-13 09:49:00,48.4,41.2,29.83,East,100,0.0,0.0,76,0.00,,---,0.20,VWS V14.00,2013-02-13 17:49:00,
2013-02-13 09:54:00,48.4,41.2,29.83,East,99,0.0,0.0,76,0.00,,---,0.20,VWS V14.00,2013-02-13 17:54:00,
2013-02-13 09:59:00,48.2,41.0,29.83,East,100,0.0,0.0,76,0.00,,---,0.20,VWS V14.00,2013-02-13 17:59:00,
2013-02-13 10:04:00,48.2,41.0,29.83,East,100,0.0,0.0,76,0.00,,---,0.20,VWS V14.00,2013-02-13 18:04:00,
2013-02-13 10:09:00,48.2,41.0,29.83,East,100,0.0,0.0,76,0.00,,---,0.20,VWS V14.00,2013-02-13 18:09:00,
2013-02-13 10:14:00,48.0,40.8,29.83,East,100,0.0,0.0,76,0.00,,---,0.20,VWS V14.00,2013-02-13 18:14:00,
2013-02-13 10:19:00,47.8,40.7,29.83,East,100,0.0,0.0,76,0.00,,---,0.20,VWS V14.00,2013-02-13 18:19:00,
2013-02-13 10:24:00,47.7,40.5,29.83,East,100,0.0,0.0,76,0.00,,---,0.20,VWS V14.00,2013-02-13 18:24:00,
2013-02-13 10:29:00,47.7,40.5,29.83,East,100,0.0,0.0,76,0.00,,---,0.20,VWS V14.00,2013-02-13 18:29:00,
2013-02-13 10:34:00,47.7,40.5,29.83,East,100,0.0,0.0,76,0.00,,---,0.20,VWS V14.00,2013-02-13 18:34:00,
2013-02-13 10:39:00,47.7,40.8,29.83,East,100,0.0,0.0,77,0.00,,---,0.20,VWS V14.00,2013-02-13 18:39:00,
2013-02-13 10:44:00,47.5,40.6,29.83,SSE,156,0.0,0.0,77,0.00,,---,0.20,VWS V14.00,2013-02-13 18:44:00,
2013-02-13 10:49:00,47.7,40.8,29.83,SSE,156,0.0,0.0,77,0.00,,---,0.20,VWS V14.00,2013-02-13 18:49:00,
2013-02-13 10:54:00,47.8,41.0,29.83,SSE,156,0.0,0.0,77,0.00,,---,0.20,VWS V14.00,2013-02-13 18:54:00,
2013-02-13 10:59:00,47.8,41.0,29.83,SSE,156,0.0,0.0,77,0.00,,---,0.20,VWS V14.00,2013-02-13 18:59:00,
2013-02-13 11:04:00,48.0,41.5,29.83,SSE,156,0.0,0.0,78,0.00,,---,0.20,VWS V14.00,2013-02-13 19:04:00,
2013-02-13 11:09:00,48.2,41.3,29.83,SSE,156,0.0,0.0,77,0.00,,---,0.20,VWS V14.00,2013-02-13 19:09:00,
2013-02-13 11:14:00,48.2,41.3,29.83,SSE,156,0.0,0.0,77,0.00,,---,0.20,VWS V14.00,2013-02-13 19:14:00,
2013-02-13 11:19:00,48.2,41.3,29.83,SSE,156,0.0,0.0,77,0.00,,---,0.20,VWS V14.00,2013-02-13 19:19:00,
2013-02-13 11:24:00,48.2,41.3,29.83,SSE,156,0.0,0.0,77,0.00,,---,0.20,VWS V14.00,2013-02-13 19:24:00,
2013-02-13 11:29:00,48.2,41.3,29.83,SSE,156,0.0,0.0,77,0.00,,---,0.20,VWS V14.00,2013-02-13 19:29:00,
2013-02-13 11:34:00,48.2,41.3,29.83,SSE,156,0.0,0.0,77,0.00,,---,0.20,VWS V14.00,2013-02-13 19:34:00,
2013-02-13 11:39:00,48.2,41.0,29.83,SSE,156,0.0,0.0,76,0.00,,---,0.20,VWS V14.00,2013-02-13 19:39:00,
2013-02-13 11:44:00,48.2,41.0,29.83,SSE,156,0.0,0.0,76,0.00,,---,0.20,VWS V14.00,2013-02-13 19:44:00,
2013-02-13 11:49:00,48.4,41.5,29.83,SSE,156,0.0,0.0,77,0.00,,---,0.20,VWS V14.00,2013-02-13 19:49:00,
2013-02-13 11:54:00,48.6,41.7,29.83,SSE,155,0.0,0.0,77,0.00,,---,0.20,VWS V14.00,2013-02-13 19:54:00,
2013-02-13 11:59:00,48.6,41.3,29.83,South,175,0.0,3.1,76,0.00,,---,0.20,VWS V14.00,2013-02-13 19:59:00,
2013-02-13 12:05:00,48.6,41.3,29.83,East,94,0.0,0.0,76,0.00,,---,0.20,VWS V14.00,2013-02-13 20:05:00,
2013-02-13 12:10:00,48.7,41.5,29.83,ESE,122,0.0,0.0,76,0.00,,---,0.20,VWS V14.00,2013-02-13 20:10:00,
2013-02-13 12:15:00,48.7,41.5,29.83,ESE,122,0.0,0.0,76,0.00,,---,0.20,VWS V14.00,2013-02-13 20:15:00,
2013-02-13 12:20:00,48.7,41.5,29.83,ESE,122,0.0,0.0,76,0.00,,---,0.20,VWS V14.00,2013-02-13 20:20:00,
2013-02-13 12:25:00,48.7,41.5,29.83,ESE,122,0.0,0.0,76,0.00,,---,0.20,VWS V14.00,2013-02-13 20:25:00,
2013-02-13 12:30:00,48.7,41.5,29.83,SSE,164,0.0,0.0,76,0.00,,---,0.20,VWS V14.00,2013-02-13 20:30:00,
2013-02-13 12:35:00,48.7,41.5,29.83,SSE,164,0.0,0.0,76,0.00,,---,0.20,VWS V14.00,2013-02-13 20:35:00,
2013-02-13 12:40:00,48.7,41.5,29.83,SSE,164,0.0,0.0,76,0.00,,---,0.20,VWS V14.00,2013-02-13 20:40:00,
2013-02-13 12:45:00,48.7,41.2,29.83,SSE,164,0.0,0.0,75,0.00,,---,0.20,VWS V14.00,2013-02-13 20:45:00,
2013-02-13 12:50:00,48.6,41.0,29.83,SSE,164,0.0,0.0,75,0.00,,---,0.20,VWS V14.00,2013-02-13 20:50:00,
2013-02-13 12:55:00,48.7,41.2,29.83,SSE,164,0.0,0.0,75,0.00,,---,0.20,VWS V14.00,2013-02-13 20:55:00,
2013-02-13 13:00:00,48.7,41.2,29.83,SSE,164,0.0,0.0,75,0.00,,---,0.20,VWS V14.00,2013-02-13 21:00:00,
2013-02-13 13:05:00,48.7,41.2,29.83,SSE,164,0.0,0.0,75,0.00,,---,0.20,VWS V14.00,2013-02-13 21:05:00,
2013-02-13 13:10:00,48.7,41.2,29.83,SSE,164,0.0,0.0,75,0.00,,---,0.20,VWS V14.00,2013-02-13 21:10:00,
2013-02-13 13:15:00,48.9,41.4,29.83,SSE,164,0.0,0.0,75,0.00,,---,0.20,VWS V14.00,2013-02-13 21:15:00,
2013-02-13 13:20:00,48.9,41.4,29.83,SSE,164,0.0,0.0,75,0.00,,---,0.20,VWS V14.00,2013-02-13 21:20:00,
2013-02-13 13:25:00,48.9,41.4,29.83,SSE,164,0.0,0.0,75,0.00,,---,0.20,VWS V14.00,2013-02-13 21:25:00,
2013-02-13 13:30:00,48.9,41.4,29.83,SSE,164,0.0,0.0,75,0.00,,---,0.20,VWS V14.00,2013-02-13 21:30:00,
2013-02-13 13:35:00,49.1,41.5,29.83,SSE,164,0.0,0.0,75,0.00,,---,0.20,VWS V14.00,2013-02-13 21:35:00,
2013-02-13 13:40:00,49.1,41.5,29.83,SSE,164,0.0,0.0,75,0.00,,---,0.20,VWS V14.00,2013-02-13 21:40:00,
2013-02-13 13:45:00,49.1,41.5,29.83,South,191,0.0,0.0,75,0.00,,---,0.20,VWS V14.00,2013-02-13 21:45:00,
2013-02-13 13:50:00,49.1,41.5,29.83,South,191,0.0,0.0,75,0.00,,---,0.20,VWS V14.00,2013-02-13 21:50:00,
2013-02-13 13:55:00,49.1,41.5,29.83,South,191,0.0,0.0,75,0.00,,---,0.20,VWS V14.00,2013-02-13 21:55:00,
2013-02-13 14:00:00,49.3,41.7,29.83,South,191,0.0,0.0,75,0.00,,---,0.00,VWS V14.00,2013-02-13 22:00:00,
2013-02-13 14:05:00,49.3,41.7,29.83,South,191,0.0,0.0,75,0.00,,---,0.20,VWS V14.00,2013-02-13 22:05:00,
2013-02-13 14:10:00,49.3,41.7,29.83,South,191,0.0,0.0,75,0.00,,---,0.20,VWS V14.00,2013-02-13 22:10:00,
2013-02-13 14:15:00,49.3,41.7,29.83,South,191,0.0,0.0,75,0.00,,---,0.20,VWS V14.00,2013-02-13 22:15:00,
2013-02-13 14:20:00,49.5,41.9,29.83,South,191,0.0,0.0,75,0.00,,---,0.20,VWS V14.00,2013-02-13 22:20:00,
2013-02-13 14:25:00,49.5,41.9,29.83,South,191,0.0,0.0,75,0.00,,---,0.20,VWS V14.00,2013-02-13 22:25:00,
2013-02-13 14:30:00,49.6,42.0,29.83,South,191,0.0,0.0,75,0.00,,---,0.20,VWS V14.00,2013-02-13 22:30:00,
2013-02-13 14:35:00,49.6,42.0,29.83,South,191,0.0,0.0,75,0.00,,---,0.20,VWS V14.00,2013-02-13 22:35:00,
2013-02-13 14:40:00,49.6,42.0,29.83,South,191,0.0,0.0,75,0.00,,---,0.20,VWS V14.00,2013-02-13 22:40:00,
2013-02-13 14:45:00,49.6,42.0,29.83,South,191,0.0,0.0,75,0.00,,---,0.20,VWS V14.00,2013-02-13 22:45:00,
2013-02-13 14:50:00,49.6,42.0,29.83,South,191,0.0,0.0,75,0.00,,---,0.20,VWS V14.00,2013-02-13 22:50:00,
2013-02-13 14:55:00,49.6,42.0,29.83,South,191,0.0,0.0,75,0.00,,---,0.20,VWS V14.00,2013-02-13 22:55:00,
2013-02-13 15:00:00,49.6,42.0,29.83,South,191,0.0,0.0,75,0.00,,---,0.20,VWS V14.00,2013-02-13 23:00:00,
2013-02-13 15:05:00,49.6,42.0,29.83,South,191,0.0,0.0,75,0.00,,---,0.20,VWS V14.00,2013-02-13 23:05:00,
2013-02-13 15:10:00,49.6,42.0,29.83,South,191,0.0,0.0,75,0.00,,---,0.20,VWS V14.00,2013-02-13 23:10:00,
2013-02-13 15:15:00,49.6,42.0,29.83,South,191,0.0,0.0,75,0.00,,---,0.20,VWS V14.00,2013-02-13 23:15:00,
2013-02-13 15:20:00,49.6,42.0,29.83,South,191,0.0,0.0,75,0.00,,---,0.20,VWS V14.00,2013-02-13 23:20:00,
2013-02-13 15:25:00,49.6,42.0,29.83,South,191,0.0,0.0,75,0.00,,---,0.20,VWS V14.00,2013-02-13 23:25:00,
2013-02-13 15:30:00,49.6,42.0,29.83,South,191,0.0,0.0,75,0.00,,---,0.20,VWS V14.00,2013-02-13 23:30:00,
2013-02-13 15:35:00,49.8,42.2,29.83,South,191,0.0,0.0,75,0.00,,---,0.20,VWS V14.00,2013-02-13 23:35:00,
2013-02-13 15:40:00,49.8,42.2,29.83,South,191,0.0,0.0,75,0.00,,---,0.20,VWS V14.00,2013-02-13 23:40:00,
2013-02-13 15:45:00,49.8,42.2,29.83,South,191,0.0,0.0,75,0.00,,---,0.20,VWS V14.00,2013-02-13 23:45:00,
2013-02-13 15:50:00,49.8,42.2,29.83,South,191,0.0,0.0,75,0.00,,---,0.20,VWS V14.00,2013-02-13 23:50:00,
2013-02-13 15:55:00,49.8,42.2,29.83,South,191,0.0,0.0,75,0.00,,---,0.20,VWS V14.00,2013-02-13 23:55:00,
2013-02-13 16:00:00,49.8,42.2,29.83,South,191,0.0,0.0,75,0.00,,---,0.20,VWS V14.00,2013-02-14 00:00:00,
2013-02-13 16:05:00,49.8,42.2,29.83,South,191,0.0,0.0,75,0.00,,---,0.20,VWS V14.00,2013-02-14 00:05:00,
2013-02-13 16:11:00,49.8,42.2,29.83,South,191,0.0,0.0,75,0.00,,---,0.20,VWS V14.00,2013-02-14 00:11:00,
2013-02-13 16:16:00,49.6,42.0,29.83,South,191,0.0,0.0,75,0.00,,---,0.20,VWS V14.00,2013-02-14 00:16:00,
2013-02-13 16:21:00,49.6,42.0,29.83,South,191,0.0,0.0,75,0.00,,---,0.20,VWS V14.00,2013-02-14 00:21:00,
2013-02-13 16:26:00,49.6,42.0,29.83,South,191,0.0,0.0,75,0.00,,---,0.20,VWS V14.00,2013-02-14 00:26:00,
2013-02-13 16:31:00,49.6,42.0,29.83,South,191,0.0,0.0,75,0.00,,---,0.20,VWS V14.00,2013-02-14 00:31:00,
2013-02-13 16:36:00,49.5,41.9,29.83,South,191,0.0,0.0,75,0.00,,---,0.20,VWS V14.00,2013-02-14 00:36:00,
2013-02-13 16:41:00,49.5,41.9,29.83,South,191,0.0,0.0,75,0.00,,---,0.20,VWS V14.00,2013-02-14 00:41:00,
2013-02-13 16:46:00,49.5,41.9,29.83,South,191,0.0,0.0,75,0.00,,---,0.20,VWS V14.00,2013-02-14 00:46:00,
2013-02-13 16:51:00,49.5,41.9,29.83,South,191,0.0,0.0,75,0.00,,---,0.20,VWS V14.00,2013-02-14 00:51:00,
2013-02-13 16:56:00,49.5,41.9,29.83,South,191,0.0,0.0,75,0.00,,---,0.20,VWS V14.00,2013-02-14 00:56:00,
2013-02-13 17:01:00,49.5,41.9,29.83,South,191,0.0,0.0,75,0.00,,---,0.20,VWS V14.00,2013-02-14 01:01:00,
2013-02-13 17:06:00,49.5,41.9,29.83,South,191,0.0,0.0,75,0.00,,---,0.20,VWS V14.00,2013-02-14 01:06:00,
2013-02-13 17:11:00,49.5,41.9,29.83,South,191,0.0,0.0,75,0.00,,---,0.20,VWS V14.00,2013-02-14 01:11:00,
2013-02-13 17:16:00,49.3,41.7,29.83,South,190,0.0,0.0,75,0.00,,---,0.20,VWS V14.00,2013-02-14 01:16:00,
2013-02-13 17:21:00,49.3,41.7,29.83,South,191,0.0,0.0,75,0.00,,---,0.20,VWS V14.00,2013-02-14 01:21:00,
2013-02-13 17:26:00,49.3,41.7,29.83,South,191,0.0,0.0,75,0.00,,---,0.20,VWS V14.00,2013-02-14 01:26:00,
2013-02-13 17:31:00,49.3,41.7,29.83,South,191,0.0,0.0,75,0.00,,---,0.20,VWS V14.00,2013-02-14 01:31:00,
2013-02-13 17:36:00,49.3,41.7,29.83,South,191,0.0,0.0,75,0.00,,---,0.20,VWS V14.00,2013-02-14 01:36:00,
2013-02-13 17:41:00,49.3,41.7,29.83,South,191,0.0,0.0,75,0.00,,---,0.20,VWS V14.00,2013-02-14 01:41:00,
2013-02-13 17:46:00,49.3,41.7,29.83,South,191,0.0,0.0,75,0.00,,---,0.20,VWS V14.00,2013-02-14 01:46:00,
2013-02-13 17:51:00,49.5,41.9,29.83,South,191,0.0,0.0,75,0.00,,---,0.20,VWS V14.00,2013-02-14 01:51:00,
2013-02-13 17:56:00,49.3,41.7,29.83,South,191,0.0,0.0,75,0.00,,---,0.20,VWS V14.00,2013-02-14 01:56:00,
2013-02-13 18:01:00,49.3,41.7,29.83,South,191,0.0,0.0,75,0.00,,---,0.20,VWS V14.00,2013-02-14 02:01:00,
2013-02-13 18:06:00,49.3,41.7,29.83,South,191,0.0,0.0,75,0.00,,---,0.20,VWS V14.00,2013-02-14 02:06:00,
2013-02-13 18:11:00,49.3,41.7,29.83,South,191,0.0,0.0,75,0.00,,---,0.20,VWS V14.00,2013-02-14 02:11:00,
2013-02-13 18:16:00,49.3,41.7,29.83,South,191,0.0,0.0,75,0.00,,---,0.20,VWS V14.00,2013-02-14 02:16:00,
2013-02-13 18:21:00,49.3,41.7,29.83,South,191,0.0,0.0,75,0.00,,---,0.20,VWS V14.00,2013-02-14 02:21:00,
2013-02-13 18:26:00,49.3,41.7,29.83,South,191,0.0,0.0,75,0.00,,---,0.20,VWS V14.00,2013-02-14 02:26:00,
2013-02-13 18:31:00,49.1,41.5,29.83,South,191,0.0,0.0,75,0.00,,---,0.20,VWS V14.00,2013-02-14 02:31:00,
2013-02-13 18:36:00,49.1,41.5,29.83,South,191,0.0,0.0,75,0.00,,---,0.20,VWS V14.00,2013-02-14 02:36:00,
2013-02-13 18:41:00,49.1,41.5,29.83,South,191,0.0,0.0,75,0.00,,---,0.20,VWS V14.00,2013-02-14 02:41:00,
2013-02-13 18:47:00,49.1,41.5,29.83,South,191,0.0,0.0,75,0.00,,---,0.20,VWS V14.00,2013-02-14 02:47:00,
2013-02-13 18:52:00,49.1,41.5,29.85,South,191,0.0,0.0,75,0.00,,---,0.20,VWS V14.00,2013-02-14 02:52:00,
2013-02-13 18:57:00,49.3,41.7,29.85,South,191,0.0,0.0,75,0.00,,---,0.20,VWS V14.00,2013-02-14 02:57:00,
2013-02-13 19:02:00,49.3,41.7,29.85,South,191,0.0,0.0,75,0.00,,---,0.20,VWS V14.00,2013-02-14 03:02:00,
2013-02-13 19:07:00,49.3,41.7,29.85,South,191,0.0,0.0,75,0.00,,---,0.20,VWS V14.00,2013-02-14 03:07:00,
2013-02-13 19:12:00,49.3,41.7,29.85,South,191,0.0,0.0,75,0.00,,---,0.20,VWS V14.00,2013-02-14 03:12:00,
2013-02-13 19:17:00,49.3,41.7,29.85,South,191,0.0,0.0,75,0.00,,---,0.20,VWS V14.00,2013-02-14 03:17:00,
2013-02-13 19:22:00,49.3,41.7,29.85,South,191,0.0,0.0,75,0.00,,---,0.20,VWS V14.00,2013-02-14 03:22:00,
2013-02-13 19:27:00,49.3,41.7,29.85,South,191,0.0,0.0,75,0.00,,---,0.20,VWS V14.00,2013-02-14 03:27:00,
2013-02-13 19:32:00,49.3,41.7,29.85,South,191,0.0,0.0,75,0.00,,---,0.20,VWS V14.00,2013-02-14 03:32:00,
2013-02-13 19:37:00,49.5,41.9,29.83,South,191,0.0,0.0,75,0.00,,---,0.20,VWS V14.00,2013-02-14 03:37:00,
2013-02-13 19:42:00,49.5,41.5,29.83,South,191,0.0,0.0,74,0.00,,---,0.20,VWS V14.00,2013-02-14 03:42:00,
2013-02-13 19:47:00,49.5,41.5,29.83,South,191,0.0,0.0,74,0.00,,---,0.20,VWS V14.00,2013-02-14 03:47:00,
2013-02-13 19:52:00,49.5,41.5,29.85,South,191,0.0,0.0,74,0.00,,---,0.20,VWS V14.00,2013-02-14 03:52:00,
2013-02-13 19:57:00,49.5,41.5,29.85,South,191,0.0,0.0,74,0.00,,---,0.20,VWS V14.00,2013-02-14 03:57:00,
2013-02-13 20:02:00,49.5,41.5,29.85,South,190,0.0,0.0,74,0.00,,---,0.20,VWS V14.00,2013-02-14 04:02:00,
2013-02-13 20:07:00,49.5,41.5,29.85,South,191,0.0,0.0,74,0.00,,---,0.20,VWS V14.00,2013-02-14 04:07:00,
2013-02-13 20:12:00,49.5,41.5,29.85,South,191,0.0,0.0,74,0.00,,---,0.20,VWS V14.00,2013-02-14 04:12:00,
2013-02-13 20:17:00,49.5,41.5,29.85,South,191,0.0,0.0,74,0.00,,---,0.20,VWS V14.00,2013-02-14 04:17:00,
2013-02-13 20:22:00,49.5,41.5,29.85,South,191,0.0,0.0,74,0.00,,---,0.20,VWS V14.00,2013-02-14 04:22:00,
2013-02-13 20:27:00,49.5,41.5,29.85,South,191,0.0,0.0,74,0.00,,---,0.20,VWS V14.00,2013-02-14 04:27:00,
2013-02-13 20:32:00,49.5,41.5,29.85,South,191,0.0,0.0,74,0.00,,---,0.20,VWS V14.00,2013-02-14 04:32:00,
2013-02-13 20:37:00,49.5,41.5,29.85,South,191,0.0,0.0,74,0.00,,---,0.20,VWS V14.00,2013-02-14 04:37:00,
2013-02-13 20:42:00,49.5,41.5,29.85,South,191,0.0,0.0,74,0.00,,---,0.20,VWS V14.00,2013-02-14 04:42:00,
2013-02-13 20:47:00,49.3,41.4,29.85,South,191,0.0,0.0,74,0.00,,---,0.20,VWS V14.00,2013-02-14 04:47:00,
2013-02-13 20:52:00,49.3,41.4,29.85,South,191,0.0,0.0,74,0.00,,---,0.20,VWS V14.00,2013-02-14 04:52:00,
2013-02-13 20:57:00,49.3,41.4,29.85,South,191,0.0,0.0,74,0.00,,---,0.20,VWS V14.00,2013-02-14 04:57:00,
2013-02-13 21:00:00,49.3,41.4,29.85,South,191,0.0,0.0,74,0.00,,---,0.20,VWS V14.00,2013-02-14 05:00:00,
2013-02-13 21:01:00,49.3,41.4,29.85,South,191,0.0,0.0,74,0.00,,---,0.20,VWS V14.00,2013-02-14 05:01:00,
2013-02-13 21:06:00,49.1,41.2,29.85,South,191,0.0,0.0,74,0.00,,---,0.20,VWS V14.00,2013-02-14 05:06:00,
2013-02-13 21:11:00,48.9,40.7,29.85,South,191,0.0,0.0,73,0.00,,---,0.20,VWS V14.00,2013-02-14 05:11:00,
2013-02-13 21:16:00,48.7,40.5,29.85,South,191,0.0,0.0,73,0.00,,---,0.20,VWS V14.00,2013-02-14 05:16:00,
2013-02-13 21:21:00,48.7,40.5,29.85,South,191,0.0,0.0,73,0.00,,---,0.20,VWS V14.00,2013-02-14 05:21:00,
2013-02-13 21:26:00,48.7,40.5,29.85,South,191,0.0,0.0,73,0.00,,---,0.20,VWS V14.00,2013-02-14 05:26:00,
2013-02-13 21:31:00,48.6,40.3,29.85,South,191,0.0,0.0,73,0.00,,---,0.20,VWS V14.00,2013-02-14 05:31:00,
2013-02-13 21:36:00,48.6,40.3,29.85,South,191,0.0,0.0,73,0.00,,---,0.20,VWS V14.00,2013-02-14 05:36:00,
2013-02-13 21:41:00,48.6,40.3,29.85,South,191,0.0,0.0,73,0.00,,---,0.20,VWS V14.00,2013-02-14 05:41:00,
2013-02-13 21:46:00,48.6,40.3,29.85,South,191,0.0,0.0,73,0.00,,---,0.20,VWS V14.00,2013-02-14 05:46:00,
2013-02-13 21:51:00,48.6,40.3,29.85,South,191,0.0,0.0,73,0.00,,---,0.20,VWS V14.00,2013-02-14 05:51:00,
2013-02-13 21:56:00,48.7,40.5,29.85,South,191,0.0,0.0,73,0.00,,---,0.20,VWS V14.00,2013-02-14 05:56:00,
2013-02-13 22:01:00,48.9,40.7,29.85,South,191,0.0,0.0,73,0.00,,---,0.20,VWS V14.00,2013-02-14 06:01:00,
2013-02-13 22:06:00,48.9,40.7,29.85,South,191,0.0,0.0,73,0.00,,---,0.20,VWS V14.00,2013-02-14 06:06:00,
2013-02-13 22:11:00,49.1,40.8,29.85,South,191,0.0,0.0,73,0.00,,---,0.20,VWS V14.00,2013-02-14 06:11:00,
2013-02-13 22:16:00,49.1,40.8,29.85,South,191,0.0,0.0,73,0.00,,---,0.20,VWS V14.00,2013-02-14 06:16:00,
2013-02-13 22:21:00,49.3,41.0,29.85,South,191,0.0,0.0,73,0.00,,---,0.20,VWS V14.00,2013-02-14 06:21:00,
2013-02-13 22:26:00,49.3,41.0,29.85,South,191,0.0,0.0,73,0.00,,---,0.20,VWS V14.00,2013-02-14 06:26:00,
2013-02-13 22:31:00,49.3,41.0,29.85,South,191,0.0,0.0,73,0.00,,---,0.20,VWS V14.00,2013-02-14 06:31:00,
2013-02-13 22:36:00,49.3,41.0,29.88,South,191,0.0,0.0,73,0.00,,---,0.20,VWS V14.00,2013-02-14 06:36:00,
2013-02-13 22:41:00,49.3,41.0,29.88,South,191,0.0,0.0,73,0.00,,---,0.20,VWS V14.00,2013-02-14 06:41:00,
2013-02-13 22:46:00,49.5,41.2,29.88,South,191,0.0,0.0,73,0.00,,---,0.20,VWS V14.00,2013-02-14 06:46:00,
2013-02-13 22:51:00,49.3,41.0,29.88,South,191,0.0,0.0,73,0.00,,---,0.20,VWS V14.00,2013-02-14 06:51:00,
2013-02-13 22:56:00,49.3,41.0,29.88,South,191,0.0,0.0,73,0.00,,---,0.20,VWS V14.00,2013-02-14 06:56:00,
2013-02-13 23:01:00,49.5,41.2,29.88,South,191,0.0,0.0,73,0.00,,---,0.20,VWS V14.00,2013-02-14 07:01:00,
2013-02-13 23:06:00,49.3,41.0,29.88,South,191,0.0,0.0,73,0.00,,---,0.20,VWS V14.00,2013-02-14 07:06:00,
2013-02-13 23:11:00,49.3,41.0,29.88,South,191,0.0,0.0,73,0.00,,---,0.20,VWS V14.00,2013-02-14 07:11:00,
2013-02-13 23:16:00,49.3,41.0,29.88,South,191,0.0,0.0,73,0.00,,---,0.20,VWS V14.00,2013-02-14 07:16:00,
2013-02-13 23:21:00,49.1,40.8,29.88,South,191,0.0,0.0,73,0.00,,---,0.20,VWS V14.00,2013-02-14 07:21:00,
2013-02-13 23:26:00,49.1,40.8,29.88,South,191,0.0,0.0,73,0.00,,---,0.20,VWS V14.00,2013-02-14 07:26:00,
2013-02-13 23:31:00,49.1,40.8,29.88,South,191,0.0,0.0,73,0.00,,---,0.20,VWS V14.00,2013-02-14 07:31:00,
2013-02-13 23:36:00,49.1,40.8,29.88,South,191,0.0,0.0,73,0.00,,---,0.20,VWS V14.00,2013-02-14 07:36:00,
2013-02-13 23:41:00,49.1,40.8,29.88,South,191,0.0,0.0,73,0.00,,---,0.20,VWS V14.00,2013-02-14 07:41:00,
2013-02-13 23:46:00,49.1,40.8,29.88,South,191,0.0,0.0,73,0.00,,---,0.20,VWS V14.00,2013-02-14 07:46:00,
2013-02-13 23:51:00,49.1,40.8,29.88,South,191,0.0,0.0,73,0.00,,---,0.20,VWS V14.00,2013-02-14 07:51:00,
2013-02-13 23:57:00,49.1,40.8,29.88,South,191,0.0,0.0,73,0.00,,---,0.20,VWS V14.00,2013-02-14 07:57:00,